Time;durP1;ratioP1;P1;durP2;ratioP2;P2;SDS_P1;SDS_P2;PMS_P1;PMS_P2;Temp;Humidity;BMP_temperature;BMP_pressure;BME280_temperature;BME280_humidity;BME280_pressure;Samples;Min_cycle;Max_cycle;Signal;HPM_P1;HPM_P2
2022/06/06 00:00:47;;;;;;;11.93;9.95;;;16.10;91.50;;;;;;5055766;28;20179;-86
2022/06/06 00:03:15;;;;;;;10.80;9.48;;;16.00;91.30;;;;;;5055978;28;20249;-86
2022/06/06 00:05:42;;;;;;;13.05;10.00;;;16.00;91.10;;;;;;5055028;28;20374;-87
2022/06/06 00:08:08;;;;;;;11.43;9.90;;;16.10;91.10;;;;;;5054728;28;20195;-86
2022/06/06 00:10:34;;;;;;;11.40;10.05;;;16.10;91.10;;;;;;5056252;28;20191;-86
2022/06/06 00:13:00;;;;;;;10.35;9.32;;;16.10;91.20;;;;;;5056524;28;20614;-85
2022/06/06 00:15:25;;;;;;;10.57;8.98;;;16.10;91.30;;;;;;5054805;28;20677;-87
2022/06/06 00:17:51;;;;;;;11.38;10.30;;;16.10;91.40;;;;;;5054749;28;20724;-87
2022/06/06 00:20:17;;;;;;;12.57;9.75;;;16.00;91.60;;;;;;5056069;28;20232;-87
2022/06/06 00:22:43;;;;;;;11.40;10.30;;;16.00;91.70;;;;;;5054548;28;20208;-87
2022/06/06 00:25:09;;;;;;;13.63;10.70;;;16.00;91.90;;;;;;5054575;28;20254;-86
2022/06/06 00:27:35;;;;;;;12.10;10.88;;;16.00;92.00;;;;;;5055396;28;20187;-85
2022/06/06 00:30:01;;;;;;;15.20;11.80;;;16.00;92.10;;;;;;5054149;28;20185;-87
2022/06/06 00:35:10;;;;;;;12.63;10.88;;;16.00;92.20;;;;;;5055931;28;20163;-85
2022/06/06 00:37:38;;;;;;;14.88;11.55;;;16.00;92.20;;;;;;5054916;28;20196;-86
2022/06/06 00:40:06;;;;;;;12.55;11.45;;;16.00;92.20;;;;;;5054627;28;20172;-87
2022/06/06 00:42:38;;;;;;;14.55;11.88;;;16.00;92.30;;;;;;5053999;28;20232;-86
2022/06/06 00:45:28;;;;;;;13.82;12.52;;;16.00;92.40;;;;;;5055252;28;20188;-86
2022/06/06 00:48:05;;;;;;;13.82;12.30;;;16.00;92.50;;;;;;5054828;28;20258;-86
2022/06/06 00:50:43;;;;;;;14.50;12.75;;;16.00;92.60;;;;;;5054063;28;20263;-88
2022/06/06 00:53:09;;;;;;;14.90;13.50;;;15.90;92.70;;;;;;5054128;28;20648;-88
2022/06/06 00:55:41;;;;;;;16.58;12.88;;;16.00;92.80;;;;;;5055509;28;20195;-88
2022/06/06 00:58:12;;;;;;;15.07;12.55;;;15.90;92.90;;;;;;5054245;28;20195;-88
2022/06/06 01:00:39;;;;;;;15.15;13.75;;;15.90;93.00;;;;;;5054059;28;20180;-87
2022/06/06 01:03:07;;;;;;;14.50;13.10;;;15.90;93.10;;;;;;5053979;28;20199;-88
2022/06/06 01:05:34;;;;;;;15.57;13.95;;;15.90;93.10;;;;;;5055002;28;20175;-88
2022/06/06 01:07:59;;;;;;;15.90;14.30;;;15.90;93.10;;;;;;5053810;28;20192;-89
2022/06/06 01:10:25;;;;;;;16.05;14.43;;;15.90;93.20;;;;;;5054051;28;20213;-88
2022/06/06 01:12:54;;;;;;;16.98;15.23;;;15.90;93.30;;;;;;5055743;28;20229;-88
2022/06/06 01:15:25;;;;;;;16.55;14.32;;;16.00;93.40;;;;;;5053521;28;20247;-89
2022/06/06 01:18:05;;;;;;;17.30;15.50;;;16.00;93.40;;;;;;5055217;28;20306;-88
2022/06/06 01:20:43;;;;;;;19.00;16.83;;;16.00;93.50;;;;;;5055253;28;20242;-87
2022/06/06 01:23:46;;;;;;;20.00;18.00;;;16.00;93.60;;;;;;5055296;28;20240;-88
2022/06/06 01:26:53;;;;;;;19.92;17.98;;;16.10;93.70;;;;;;5055276;28;20157;-88
2022/06/06 01:29:25;;;;;;;19.52;17.63;;;16.20;93.80;;;;;;5055193;28;20191;-88
2022/06/06 01:32:15;;;;;;;20.15;18.25;;;16.20;93.90;;;;;;5055089;28;20587;-88
2022/06/06 01:34:43;;;;;;;19.70;17.80;;;16.20;94.00;;;;;;5055286;28;20159;-88
2022/06/06 01:37:29;;;;;;;21.73;19.42;;;16.20;94.00;;;;;;5053895;28;20200;-88
2022/06/06 01:39:57;;;;;;;20.67;18.50;;;16.20;94.10;;;;;;5055040;28;20156;-87
2022/06/06 01:42:54;;;;;;;21.80;19.35;;;16.20;94.20;;;;;;5053832;28;20584;-88
2022/06/06 01:45:33;;;;;;;21.05;19.05;;;16.20;94.20;;;;;;5055121;28;20191;-88
2022/06/06 01:48:10;;;;;;;22.27;19.88;;;16.20;94.30;;;;;;5053853;28;20212;-88
2022/06/06 01:50:39;;;;;;;21.13;19.08;;;16.20;94.40;;;;;;5053574;28;20172;-88
2022/06/06 01:53:07;;;;;;;25.95;21.58;;;16.20;94.40;;;;;;5052897;28;20187;-88
2022/06/06 01:55:37;;;;;;;22.40;20.15;;;16.20;94.40;;;;;;5053479;28;20172;-88
2022/06/06 01:58:06;;;;;;;23.23;20.88;;;16.30;94.40;;;;;;5053399;28;20196;-88
2022/06/06 02:00:34;;;;;;;23.25;21.08;;;16.30;94.50;;;;;;5053320;28;20256;-88
2022/06/06 02:03:00;;;;;;;22.38;20.17;;;16.40;94.50;;;;;;5053663;28;20569;-88
2022/06/06 02:05:27;;;;;;;24.02;21.88;;;16.40;94.60;;;;;;5053079;28;20183;-89
2022/06/06 02:07:53;;;;;;;23.65;21.20;;;16.40;94.60;;;;;;5053121;28;20192;-88
2022/06/06 02:10:22;;;;;;;21.55;19.42;;;16.50;94.60;;;;;;5053136;28;20267;-88
2022/06/06 02:12:48;;;;;;;21.23;19.00;;;16.40;94.60;;;;;;5053880;28;20222;-88
2022/06/06 02:15:17;;;;;;;22.08;19.77;;;16.50;94.60;;;;;;5054657;28;20214;-88
2022/06/06 02:17:43;;;;;;;21.73;19.73;;;16.50;94.60;;;;;;5053406;28;20192;-88
2022/06/06 02:20:12;;;;;;;20.60;18.63;;;16.60;94.60;;;;;;5053355;28;20262;-87
2022/06/06 02:22:38;;;;;;;22.48;20.27;;;16.70;94.60;;;;;;5053009;28;20226;-87
2022/06/06 02:25:06;;;;;;;19.42;17.45;;;16.70;94.50;;;;;;5053444;28;20179;-87
2022/06/06 02:27:33;;;;;;;19.83;18.13;;;16.70;94.40;;;;;;5052989;28;20720;-88
2022/06/06 02:29:58;;;;;;;16.80;15.15;;;16.80;94.30;;;;;;5054540;28;20711;-88
2022/06/06 02:32:24;;;;;;;12.63;10.40;;;16.80;94.20;;;;;;5053389;28;20172;-88
2022/06/06 02:34:49;;;;;;;11.55;10.30;;;16.80;93.90;;;;;;5053674;28;20528;-88
2022/06/06 02:37:15;;;;;;;10.13;9.07;;;16.80;93.80;;;;;;5053169;28;20187;-88
2022/06/06 02:39:41;;;;;;;10.00;9.18;;;16.70;93.80;;;;;;5052877;28;20207;-88
2022/06/06 02:42:07;;;;;;;9.48;8.55;;;16.70;93.90;;;;;;5054093;28;20172;-87
2022/06/06 02:44:33;;;;;;;9.18;8.23;;;16.70;94.10;;;;;;5053912;28;20202;-88
2022/06/06 02:46:59;;;;;;;8.82;8.02;;;16.60;94.20;;;;;;5054138;28;20203;-88
2022/06/06 02:49:24;;;;;;;10.30;9.30;;;16.60;94.20;;;;;;5053314;28;20226;-89
2022/06/06 02:51:50;;;;;;;8.98;7.53;;;16.60;94.20;;;;;;5054138;28;20177;-87
2022/06/06 02:54:16;;;;;;;8.98;8.20;;;16.60;94.00;;;;;;5053356;28;20172;-88
2022/06/06 02:56:41;;;;;;;9.57;8.68;;;16.60;93.90;;;;;;5053632;28;20238;-89
2022/06/06 02:59:08;;;;;;;9.27;8.48;;;16.60;93.90;;;;;;5054617;28;20183;-88
2022/06/06 03:01:34;;;;;;;8.65;7.95;;;16.60;93.80;;;;;;5053110;28;20691;-88
2022/06/06 03:03:59;;;;;;;9.57;8.68;;;16.60;93.60;;;;;;5055895;28;20200;-88
2022/06/06 03:06:41;;;;;;;8.63;7.88;;;16.60;93.60;;;;;;5056541;28;20242;-89
2022/06/06 03:09:36;;;;;;;9.65;8.70;;;16.60;93.60;;;;;;5057253;28;20168;-88
2022/06/06 03:12:19;;;;;;;8.85;8.05;;;16.60;93.70;;;;;;5057260;28;20192;-89
2022/06/06 03:15:13;;;;;;;8.75;7.93;;;16.50;93.80;;;;;;5058099;28;20195;-88
2022/06/06 03:20:47;;;;;;;10.25;9.18;;;16.50;94.10;;;;;;5058380;28;20541;-88
2022/06/06 03:23:39;;;;;;;10.02;8.75;;;16.40;94.30;;;;;;5056698;28;20196;-88
2022/06/06 03:26:23;;;;;;;10.63;9.63;;;16.40;94.40;;;;;;5056398;28;20172;-88
2022/06/06 03:28:54;;;;;;;11.32;9.15;;;16.40;94.40;;;;;;5056344;28;20574;-88
2022/06/06 03:31:58;;;;;;;9.32;8.32;;;16.40;94.40;;;;;;5057770;28;20165;-88
2022/06/06 03:34:53;;;;;;;10.10;9.20;;;16.40;94.40;;;;;;5057439;28;20249;-88
2022/06/06 03:37:23;;;;;;;9.32;7.55;;;16.40;94.30;;;;;;5056027;28;20204;-87
2022/06/06 03:40:13;;;;;;;8.55;7.75;;;16.40;94.10;;;;;;5055964;28;20176;-88
2022/06/06 03:42:57;;;;;;;7.57;6.93;;;16.40;94.10;;;;;;5057885;28;20243;-87
2022/06/06 03:45:35;;;;;;;7.78;6.97;;;16.40;94.10;;;;;;5055887;28;20176;-88
2022/06/06 03:48:14;;;;;;;8.70;7.75;;;16.40;94.00;;;;;;5055898;28;20574;-87
2022/06/06 03:51:01;;;;;;;11.27;7.63;;;16.30;93.90;;;;;;5057548;28;20250;-88
2022/06/06 03:53:45;;;;;;;9.52;7.75;;;16.30;93.80;;;;;;5057449;28;20614;-87
2022/06/06 03:56:54;;;;;;;9.15;8.25;;;16.40;93.70;;;;;;5055568;28;20176;-87
2022/06/06 03:59:21;;;;;;;7.55;6.85;;;16.40;93.80;;;;;;5036285;28;20233;-88
2022/06/06 04:01:48;;;;;;;8.48;7.68;;;16.40;93.30;;;;;;5055813;28;20172;-88
2022/06/06 04:04:16;;;;;;;5.28;4.88;;;16.40;93.20;;;;;;5056604;28;20214;-88
2022/06/06 04:06:43;;;;;;;6.00;5.50;;;16.40;92.50;;;;;;5055747;28;20204;-89
2022/06/06 04:09:09;;;;;;;7.13;5.95;;;16.50;92.30;;;;;;5057454;28;20634;-87
2022/06/06 04:11:58;;;;;;;5.20;4.70;;;16.40;92.50;;;;;;5056081;28;20255;-88
2022/06/06 04:14:45;;;;;;;4.45;4.05;;;16.40;92.20;;;;;;5056176;28;20243;-88
2022/06/06 04:17:31;;;;;;;4.97;4.35;;;16.40;92.20;;;;;;5057035;28;20276;-88
2022/06/06 04:20:11;;;;;;;4.95;4.38;;;16.40;92.10;;;;;;5055625;28;20172;-88
2022/06/06 04:23:06;;;;;;;5.00;4.60;;;16.40;92.30;;;;;;5055834;28;20179;-87
2022/06/06 04:25:45;;;;;;;6.95;5.30;;;16.40;92.20;;;;;;5055842;28;20176;-88
2022/06/06 04:28:32;;;;;;;5.22;4.72;;;16.40;92.20;;;;;;5057035;28;20249;-89
2022/06/06 04:31:26;;;;;;;5.60;5.10;;;16.40;92.40;;;;;;5055555;28;20178;-89
2022/06/06 04:34:10;;;;;;;6.07;5.43;;;16.50;92.00;;;;;;5055502;28;20186;-88
2022/06/06 04:36:44;;;;;;;5.95;5.45;;;16.50;91.90;;;;;;5055724;28;20221;-89
2022/06/06 04:39:25;;;;;;;6.75;6.07;;;16.50;92.00;;;;;;5055718;28;20660;-89
2022/06/06 04:42:11;;;;;;;6.85;5.95;;;16.50;92.10;;;;;;5055202;28;20168;-88
2022/06/06 04:45:05;;;;;;;7.93;6.30;;;16.50;92.10;;;;;;5055164;28;20195;-88
2022/06/06 04:47:36;;;;;;;9.02;5.85;;;16.50;92.00;;;;;;5021739;28;20212;-87
2022/06/06 04:50:12;;;;;;;10.50;6.72;;;16.50;92.00;;;;;;5055092;28;20658;-87
2022/06/06 04:52:41;;;;;;;7.00;6.40;;;16.50;92.10;;;;;;5055015;28;20251;-88
2022/06/06 04:55:09;;;;;;;10.10;6.60;;;16.40;92.00;;;;;;5056662;28;20176;-87
2022/06/06 04:57:37;;;;;;;7.57;6.88;;;16.40;92.20;;;;;;5055360;28;20200;-88
2022/06/06 05:00:06;;;;;;;6.75;6.15;;;16.50;92.00;;;;;;5060469;28;20176;-89
2022/06/06 05:02:33;;;;;;;7.20;5.28;;;16.40;91.60;;;;;;5060885;28;20180;-87
2022/06/06 05:04:59;;;;;;;5.40;4.57;;;16.50;91.40;;;;;;5062904;28;20196;-88
2022/06/06 05:07:49;;;;;;;6.30;5.70;;;16.40;91.10;;;;;;5061647;28;20195;-87
2022/06/06 05:10:47;;;;;;;8.32;6.82;;;16.50;91.00;;;;;;5059819;28;20176;-88
2022/06/06 05:13:40;;;;;;;7.18;6.57;;;16.50;90.90;;;;;;5060813;28;20179;-88
2022/06/06 05:16:44;;;;;;;7.38;6.40;;;16.50;90.90;;;;;;5059612;28;20251;-88
2022/06/06 05:19:38;;;;;;;7.78;6.85;;;16.50;90.70;;;;;;5058928;28;20211;-88
2022/06/06 05:22:28;;;;;;;7.30;6.20;;;16.50;90.80;;;;;;5057250;28;20188;-88
2022/06/06 05:25:09;;;;;;;9.90;8.90;;;16.50;90.60;;;;;;5058726;28;20211;-88
2022/06/06 05:28:04;;;;;;;9.15;8.00;;;16.40;90.80;;;;;;5058154;28;20218;-88
2022/06/06 05:30:36;;;;;;;11.25;7.60;;;16.40;90.80;;;;;;5057966;28;20229;-88
2022/06/06 05:33:13;;;;;;;13.65;8.80;;;16.30;90.30;;;;;;5061094;28;20653;-87
2022/06/06 05:35:51;;;;;;;8.88;7.90;;;16.30;90.30;;;;;;5059594;28;20164;-88
2022/06/06 05:38:42;;;;;;;8.90;8.00;;;16.40;90.10;;;;;;5061376;28;20187;-88
2022/06/06 05:41:43;;;;;;;10.52;9.43;;;16.30;90.30;;;;;;5059607;28;20240;-87
2022/06/06 05:44:15;;;;;;;11.90;9.48;;;16.30;90.20;;;;;;5061713;28;20194;-88
2022/06/06 05:46:55;;;;;;;12.75;9.75;;;16.30;90.20;;;;;;5059846;28;20204;-88
2022/06/06 05:49:33;;;;;;;12.98;9.80;;;16.30;90.10;;;;;;5059537;28;20172;-88
2022/06/06 05:52:15;;;;;;;13.30;9.00;;;16.30;90.00;;;;;;5059216;28;20171;-88
2022/06/06 05:55:25;;;;;;;15.50;12.23;;;16.30;90.10;;;;;;5059196;28;20191;-88
2022/06/06 05:58:00;;;;;;;15.02;11.43;;;16.30;90.10;;;;;;5059879;28;20199;-88
2022/06/06 06:00:42;;;;;;;14.60;12.13;;;16.30;90.00;;;;;;5059404;28;20172;-87
2022/06/06 06:03:36;;;;;;;15.32;11.55;;;16.30;89.80;;;;;;5058635;28;20200;-88
2022/06/06 06:06:24;;;;;;;17.23;12.88;;;16.30;90.00;;;;;;5059588;28;20199;-88
2022/06/06 06:09:25;;;;;;;16.98;11.50;;;16.40;89.80;;;;;;5061216;28;20162;-87
2022/06/06 06:11:59;;;;;;;20.25;14.40;;;16.50;89.50;;;;;;5059611;28;20175;-87
2022/06/06 06:14:47;;;;;;;25.35;15.60;;;16.50;89.40;;;;;;5059807;28;20572;-88
2022/06/06 06:17:16;;;;;;;22.30;13.85;;;16.60;89.60;;;;;;5058536;28;20573;-88
2022/06/06 06:20:05;;;;;;;20.73;14.13;;;16.60;89.50;;;;;;5059175;28;20815;-88
2022/06/06 06:22:37;;;;;;;23.27;14.35;;;16.60;89.40;;;;;;5059503;28;20638;-88
2022/06/06 06:25:04;;;;;;;26.55;16.92;;;16.60;89.30;;;;;;5059212;28;20538;-88
2022/06/06 06:27:33;;;;;;;26.35;17.48;;;16.60;89.50;;;;;;5059407;28;20249;-89
2022/06/06 06:29:59;;;;;;;27.98;16.33;;;16.60;89.60;;;;;;5058293;28;20172;-87
2022/06/06 06:32:49;;;;;;;26.00;15.50;;;16.60;88.70;;;;;;5058657;28;20187;-88
2022/06/06 06:35:41;;;;;;;24.77;15.82;;;16.60;88.80;;;;;;5058161;28;20203;-88
2022/06/06 06:38:18;;;;;;;27.75;17.13;;;16.70;88.60;;;;;;5057111;28;20199;-88
2022/06/06 06:41:23;;;;;;;21.75;15.68;;;16.70;88.60;;;;;;5062950;28;20214;-88
2022/06/06 06:44:01;;;;;;;28.55;17.60;;;16.70;88.10;;;;;;5061765;28;20200;-88
2022/06/06 06:46:33;;;;;;;29.10;16.73;;;16.70;88.10;;;;;;5061677;28;20213;-88
2022/06/06 06:49:29;;;;;;;31.73;18.73;;;16.60;88.10;;;;;;5061971;28;20270;-88
2022/06/06 06:52:03;;;;;;;25.83;14.70;;;16.60;88.40;;;;;;5059949;28;20573;-87
2022/06/06 06:54:51;;;;;;;25.35;15.57;;;16.60;88.40;;;;;;5062362;28;20179;-88
2022/06/06 06:57:34;;;;;;;24.85;15.30;;;16.50;87.90;;;;;;5062620;28;20251;-88
2022/06/06 07:00:22;;;;;;;28.70;15.82;;;16.50;87.70;;;;;;5063009;28;20160;-88
2022/06/06 07:08:39;;;;;;;25.25;15.90;;;16.50;87.50;;;;;;5058582;28;20687;-89
2022/06/06 07:11:18;;;;;;;27.80;18.58;;;16.30;87.60;;;;;;5056260;28;20180;-89
2022/06/06 07:14:03;;;;;;;24.30;15.55;;;16.30;87.70;;;;;;5056298;28;20179;-90
2022/06/06 07:16:35;;;;;;;31.63;16.73;;;16.30;87.90;;;;;;5055962;28;20227;-89
2022/06/06 07:19:09;;;;;;;27.92;19.05;;;16.20;87.90;;;;;;5057195;28;20187;-89
2022/06/06 07:21:37;;;;;;;33.60;20.17;;;16.10;88.10;;;;;;5057241;28;20633;-89
2022/06/06 07:24:06;;;;;;;32.70;20.30;;;16.10;88.50;;;;;;5056578;28;20708;-88
2022/06/06 07:26:37;;;;;;;26.65;17.63;;;16.20;88.90;;;;;;5055911;28;20423;-88
2022/06/06 07:29:05;;;;;;;30.27;18.10;;;16.20;88.00;;;;;;5055801;28;20165;-88
2022/06/06 07:31:46;;;;;;;17.88;12.25;;;16.30;87.60;;;;;;5056625;28;20176;-89
2022/06/06 07:34:40;;;;;;;23.50;15.70;;;16.30;86.70;;;;;;5057846;28;20176;-89
2022/06/06 07:37:18;;;;;;;27.33;18.23;;;16.60;87.00;;;;;;5037565;28;20215;-89
2022/06/06 07:40:21;;;;;;;25.65;17.65;;;16.60;86.00;;;;;;5055622;28;20313;-89
2022/06/06 07:43:22;;;;;;;25.95;17.58;;;16.50;86.10;;;;;;5056394;28;20271;-89
2022/06/06 07:46:17;;;;;;;27.05;17.13;;;16.50;86.40;;;;;;5055979;28;20175;-89
2022/06/06 07:48:48;;;;;;;21.02;17.38;;;16.50;86.70;;;;;;5056881;28;20195;-88
2022/06/06 07:51:26;;;;;;;27.45;17.63;;;16.60;86.60;;;;;;5055338;28;20164;-89
2022/06/06 07:53:54;;;;;;;23.95;17.25;;;16.50;86.70;;;;;;5055397;28;20172;-90
2022/06/06 07:56:47;;;;;;;25.10;17.48;;;16.50;86.70;;;;;;5055749;28;20224;-88
2022/06/06 07:59:44;;;;;;;21.95;14.68;;;16.50;86.80;;;;;;5051513;28;20200;-88
2022/06/06 08:02:28;;;;;;;21.60;14.30;;;16.40;86.50;;;;;;5061235;28;20629;-88
2022/06/06 08:05:06;;;;;;;20.35;15.63;;;16.40;86.20;;;;;;5064837;28;20199;-87
2022/06/06 08:07:46;;;;;;;23.88;15.82;;;16.30;86.20;;;;;;5063507;28;20298;-88
2022/06/06 08:10:39;;;;;;;19.17;14.27;;;16.30;86.50;;;;;;5064509;28;20537;-88
2022/06/06 08:13:29;;;;;;;21.85;13.30;;;16.30;86.30;;;;;;5063955;28;20148;-88
2022/06/06 08:16:13;;;;;;;20.75;15.77;;;16.30;86.50;;;;;;5062557;28;20160;-87
2022/06/06 08:18:48;;;;;;;22.42;14.75;;;16.30;86.10;;;;;;5063108;28;20210;-87
2022/06/06 08:21:21;;;;;;;18.25;13.80;;;16.30;86.10;;;;;;5061991;28;20172;-88
2022/06/06 08:23:51;;;;;;;20.48;15.13;;;16.30;85.60;;;;;;5064008;28;20196;-87
2022/06/06 08:26:18;;;;;;;18.17;13.40;;;16.40;85.40;;;;;;5061964;28;20202;-88
2022/06/06 08:28:45;;;;;;;20.00;15.50;;;16.30;85.30;;;;;;5058864;28;20176;-88
2022/06/06 08:31:11;;;;;;;21.05;16.67;;;16.30;85.00;;;;;;5057496;28;20685;-86
2022/06/06 08:33:36;;;;;;;20.60;14.23;;;16.30;85.20;;;;;;5056409;28;20602;-89
2022/06/06 08:36:21;;;;;;;17.27;14.43;;;16.30;85.30;;;;;;5059543;28;20202;-88
2022/06/06 08:38:59;;;;;;;19.58;13.90;;;16.30;85.50;;;;;;5058626;28;20256;-88
2022/06/06 08:41:57;;;;;;;13.82;10.88;;;16.30;84.80;;;;;;5060034;28;20155;-89
2022/06/06 08:44:50;;;;;;;15.48;11.07;;;16.30;84.10;;;;;;5058538;28;20192;-88
2022/06/06 08:47:28;;;;;;;15.82;11.73;;;16.50;83.70;;;;;;5060755;28;20200;-87
2022/06/06 08:53:04;;;;;;;13.70;10.70;;;16.70;83.20;;;;;;5061111;28;20175;-88
2022/06/06 08:56:02;;;;;;;13.27;10.73;;;17.00;84.00;;;;;;5058988;28;20160;-88
2022/06/06 08:59:12;;;;;;;13.85;8.90;;;17.00;82.60;;;;;;5049678;28;20218;-90
2022/06/06 09:02:20;;;;;;;12.45;10.68;;;17.10;82.20;;;;;;5058148;28;20164;-88
2022/06/06 09:05:01;;;;;;;15.20;11.10;;;17.50;83.00;;;;;;5059768;28;20246;-87
2022/06/06 09:08:04;;;;;;;12.70;9.25;;;17.60;81.90;;;;;;5058270;28;20582;-88
2022/06/06 09:11:02;;;;;;;14.35;10.70;;;17.60;81.20;;;;;;5057356;28;20175;-88
2022/06/06 09:13:36;;;;;;;12.45;9.63;;;17.60;81.70;;;;;;5056177;28;20198;-88
2022/06/06 09:16:38;;;;;;;14.43;9.13;;;17.30;80.90;;;;;;5056801;28;20179;-88
2022/06/06 09:19:28;;;;;;;13.10;9.20;;;17.20;81.00;;;;;;5059861;28;20202;-88
2022/06/06 09:22:16;;;;;;;12.60;10.00;;;17.20;81.00;;;;;;5061560;28;20164;-88
2022/06/06 09:25:03;;;;;;;13.13;9.35;;;17.30;81.70;;;;;;5057534;28;20199;-88
2022/06/06 09:27:39;;;;;;;12.05;9.05;;;17.20;82.50;;;;;;5056040;28;20202;-88
2022/06/06 09:30:40;;;;;;;11.00;8.50;;;17.20;82.20;;;;;;5055944;28;20171;-88
2022/06/06 09:33:18;;;;;;;11.70;8.35;;;17.00;81.60;;;;;;5003336;28;20216;-89
2022/06/06 09:36:18;;;;;;;11.27;8.85;;;17.00;81.90;;;;;;5055577;28;20311;-88
2022/06/06 09:39:07;;;;;;;15.80;8.80;;;17.30;82.10;;;;;;5054574;28;20172;-89
2022/06/06 09:41:58;;;;;;;9.60;8.18;;;17.90;81.40;;;;;;5056131;28;20160;-88
2022/06/06 09:44:30;;;;;;;11.32;8.15;;;18.30;80.40;;;;;;5054658;28;20196;-89
2022/06/06 09:47:17;;;;;;;9.07;7.95;;;18.20;77.50;;;;;;5053889;28;20203;-89
2022/06/06 09:50:12;;;;;;;9.48;7.30;;;18.20;78.20;;;;;;5053399;28;20662;-89
2022/06/06 09:52:47;;;;;;;12.95;7.43;;;18.30;77.60;;;;;;5052844;28;20169;-89
2022/06/06 09:59:01;;;;;;;11.90;7.88;;;18.30;77.80;;;;;;5056739;28;20234;-89
2022/06/06 10:01:57;;;;;;;11.70;8.88;;;18.20;78.30;;;;;;5054466;28;20207;-88
2022/06/06 10:04:41;;;;;;;12.07;7.85;;;18.40;77.20;;;;;;5056583;28;20254;-88
2022/06/06 10:07:58;;;;;;;11.70;8.32;;;18.20;76.60;;;;;;5059921;28;20187;-88
2022/06/06 10:10:39;;;;;;;11.45;8.55;;;18.30;77.10;;;;;;5055944;28;20164;-87
2022/06/06 10:13:17;;;;;;;13.55;8.00;;;18.20;78.30;;;;;;5062738;28;20167;-88
2022/06/06 10:15:42;;;;;;;10.07;8.77;;;17.90;77.30;;;;;;5064239;28;20171;-88
2022/06/06 10:18:41;;;;;;;12.18;8.20;;;17.80;77.50;;;;;;5061272;28;20196;-89
2022/06/06 10:21:55;;;;;;;12.52;9.20;;;17.70;77.60;;;;;;5061455;28;20164;-88
2022/06/06 10:24:32;;;;;;;11.18;9.50;;;17.70;78.30;;;;;;5061576;28;20615;-88
2022/06/06 10:27:22;;;;;;;10.15;9.02;;;17.60;78.90;;;;;;5064158;28;20187;-88
2022/06/06 10:30:19;;;;;;;12.15;9.30;;;17.70;79.50;;;;;;5062504;28;20198;-87
2022/06/06 10:33:06;;;;;;;11.93;9.93;;;17.90;79.50;;;;;;5062196;28;20175;-88
2022/06/06 10:36:14;;;;;;;14.65;10.05;;;18.50;79.10;;;;;;5063219;28;20171;-89
2022/06/06 10:38:58;;;;;;;17.58;11.52;;;18.80;78.10;;;;;;5060094;28;20159;-90
2022/06/06 10:41:53;;;;;;;15.70;10.20;;;19.10;75.90;;;;;;5059700;28;20194;-88
2022/06/06 10:44:56;;;;;;;15.18;10.57;;;18.90;73.60;;;;;;5061101;28;20283;-88
2022/06/06 10:47:47;;;;;;;14.13;8.38;;;18.80;75.00;;;;;;5059759;28;20203;-88
2022/06/06 10:51:36;;;;;;;14.52;9.90;;;19.00;74.00;;;;;;5058539;28;20214;-87
2022/06/06 10:54:04;;;;;;;12.82;10.05;;;19.10;75.10;;;;;;5050628;28;20183;-88
2022/06/06 10:56:45;;;;;;;10.85;8.75;;;19.50;76.70;;;;;;5060524;28;20249;-89
2022/06/06 10:59:39;;;;;;;11.30;7.80;;;19.30;72.70;;;;;;5061754;28;20173;-88
2022/06/06 11:02:30;;;;;;;13.15;9.25;;;19.30;74.00;;;;;;5060760;28;20175;-89
2022/06/06 11:05:26;;;;;;;11.38;9.93;;;19.60;75.50;;;;;;5059914;28;20203;-88
2022/06/06 11:08:13;;;;;;;10.43;8.80;;;20.00;74.50;;;;;;5059274;28;20191;-90
2022/06/06 11:11:01;;;;;;;13.23;7.35;;;20.40;71.80;;;;;;5060425;28;20184;-89
2022/06/06 11:13:48;;;;;;;8.82;7.05;;;20.40;71.10;;;;;;5059501;28;20168;-88
2022/06/06 11:16:29;;;;;;;12.82;8.48;;;20.30;69.60;;;;;;5061082;28;20160;-88
2022/06/06 11:19:00;;;;;;;11.38;8.15;;;20.20;71.80;;;;;;5059013;28;20608;-88
2022/06/06 11:21:59;;;;;;;15.27;9.80;;;20.20;69.50;;;;;;5060092;28;20175;-88
2022/06/06 11:24:31;;;;;;;14.80;9.52;;;20.20;70.40;;;;;;5058704;28;20708;-88
2022/06/06 11:27:22;;;;;;;13.35;9.15;;;20.40;73.30;;;;;;5060470;28;20191;-89
2022/06/06 11:30:01;;;;;;;19.40;7.32;;;20.60;70.90;;;;;;5057785;28;20160;-89
2022/06/06 11:33:00;;;;;;;10.75;7.97;;;20.70;65.80;;;;;;5057426;28;20575;-88
2022/06/06 11:35:58;;;;;;;9.90;7.47;;;20.80;66.90;;;;;;5055525;28;20168;-89
2022/06/06 11:38:42;;;;;;;25.80;7.70;;;20.80;66.70;;;;;;5056728;28;20168;-86
2022/06/06 11:41:45;;;;;;;12.57;9.35;;;20.70;68.60;;;;;;5057108;28;20638;-88
2022/06/06 11:44:49;;;;;;;15.70;9.15;;;20.70;68.50;;;;;;5055361;28;20204;-89
2022/06/06 11:47:33;;;;;;;12.10;8.05;;;20.80;70.20;;;;;;5054795;28;20199;-88
2022/06/06 11:50:02;;;;;;;11.63;7.30;;;21.10;69.30;;;;;;5056435;28;20176;-89
2022/06/06 11:53:03;;;;;;;18.05;6.15;;;20.90;64.50;;;;;;5056779;28;20206;-88
2022/06/06 11:55:38;;;;;;;14.43;6.78;;;20.90;64.20;;;;;;5055271;28;20163;-89
2022/06/06 11:58:14;;;;;;;10.80;6.97;;;21.20;63.80;;;;;;5054864;28;20191;-90
2022/06/06 12:00:45;;;;;;;9.75;5.70;;;21.30;60.90;;;;;;5054965;28;20277;-89
2022/06/06 12:03:40;;;;;;;9.93;6.45;;;21.20;60.90;;;;;;5054556;28;20160;-89
2022/06/06 12:06:40;;;;;;;8.65;6.15;;;20.50;63.00;;;;;;5056239;28;20611;-90
2022/06/06 12:09:16;;;;;;;7.88;5.15;;;20.50;64.00;;;;;;5055665;28;20176;-90
2022/06/06 12:12:10;;;;;;;7.82;4.72;;;21.20;61.10;;;;;;5054863;28;20214;-89
2022/06/06 12:15:11;;;;;;;4.60;4.13;;;21.40;59.30;;;;;;5054626;28;20164;-89
2022/06/06 12:17:43;;;;;;;15.27;2.83;;;21.70;58.10;;;;;;5055407;28;20214;-89
2022/06/06 12:20:26;;;;;;;10.57;3.25;;;21.40;55.10;;;;;;5055839;28;20178;-90
2022/06/06 12:23:17;;;;;;;10.85;4.18;;;21.50;55.50;;;;;;5055808;28;20156;-89
2022/06/06 12:25:59;;;;;;;28.73;4.78;;;21.50;56.90;;;;;;5056283;28;20160;-89
2022/06/06 12:28:28;;;;;;;11.35;3.63;;;21.20;56.20;;;;;;5054931;28;20190;-89
2022/06/06 12:31:16;;;;;;;5.88;3.33;;;21.20;56.70;;;;;;5053872;28;20195;-87
2022/06/06 12:33:48;;;;;;;7.55;3.85;;;20.80;59.00;;;;;;5054112;28;20179;-89
2022/06/06 12:36:20;;;;;;;6.68;3.40;;;21.00;59.30;;;;;;5053268;28;20259;-89
2022/06/06 12:39:00;;;;;;;4.22;3.03;;;21.60;59.80;;;;;;5054432;28;20614;-90
2022/06/06 12:42:01;;;;;;;3.95;3.03;;;21.70;57.70;;;;;;5054074;28;20172;-89
2022/06/06 12:44:44;;;;;;;4.38;3.15;;;21.10;58.90;;;;;;5053964;28;20221;-89
2022/06/06 12:47:12;;;;;;;12.50;3.25;;;21.00;58.40;;;;;;5054902;28;20206;-88
2022/06/06 12:49:46;;;;;;;6.50;3.60;;;21.70;56.90;;;;;;5055064;28;20160;-88
2022/06/06 12:52:32;;;;;;;5.00;3.17;;;21.50;55.60;;;;;;5054469;28;20173;-89
2022/06/06 12:57:51;;;;;;;5.43;2.67;;;21.50;56.40;;;;;;5055045;28;20665;-91
2022/06/06 13:01:37;;;;;;;2.85;2.60;;;21.70;54.30;;;;;;5053548;28;20187;-90
2022/06/06 13:03:42;;;;;;;4.30;2.53;;;21.50;55.90;;;;;;5054256;28;20172;-90
2022/06/06 13:06:41;;;;;;;3.92;2.88;;;21.80;56.80;;;;;;5047888;28;20176;-90
2022/06/06 13:09:37;;;;;;;3.55;2.55;;;22.00;55.70;;;;;;5053291;28;20214;-89
2022/06/06 13:12:15;;;;;;;3.60;2.70;;;21.80;53.40;;;;;;5053784;28;20172;-89
2022/06/06 13:14:59;;;;;;;4.47;2.65;;;21.70;56.60;;;;;;5053118;28;20700;-89
2022/06/06 13:17:50;;;;;;;6.85;2.85;;;21.80;56.50;;;;;;5053042;28;20203;-89
2022/06/06 13:20:57;;;;;;;6.10;2.90;;;22.00;52.70;;;;;;5052904;28;20164;-89
2022/06/06 13:24:00;;;;;;;3.78;2.67;;;22.30;52.50;;;;;;5052758;28;20542;-89
2022/06/06 13:26:29;;;;;;;2.88;2.40;;;22.40;54.70;;;;;;5052070;28;20253;-89
2022/06/06 13:28:55;;;;;;;11.95;2.85;;;21.80;52.10;;;;;;5052952;28;20176;-89
2022/06/06 13:31:52;;;;;;;3.67;2.20;;;21.70;54.60;;;;;;5052783;28;20305;-89
2022/06/06 13:34:59;;;;;;;2.92;1.80;;;22.10;53.10;;;;;;5053022;28;20247;-89
2022/06/06 13:37:49;;;;;;;2.20;1.77;;;22.20;51.90;;;;;;5014760;28;20204;-89
2022/06/06 13:40:55;;;;;;;4.50;2.42;;;21.70;52.70;;;;;;5054070;28;20187;-89
2022/06/06 13:43:50;;;;;;;14.00;3.63;;;21.70;55.90;;;;;;5024894;28;20674;-89
2022/06/06 13:46:26;;;;;;;16.40;2.47;;;22.20;51.80;;;;;;5044076;28;20226;-90
2022/06/06 13:49:23;;;;;;;2.67;2.08;;;22.10;52.30;;;;;;5051989;28;20187;-89
2022/06/06 13:52:19;;;;;;;4.40;2.25;;;21.80;53.30;;;;;;5046668;28;20180;-89
2022/06/06 13:54:44;;;;;;;2.88;1.83;;;22.00;52.20;;;;;;5052398;28;20168;-88
2022/06/06 13:57:26;;;;;;;3.80;1.75;;;21.90;55.00;;;;;;5052468;28;20580;-89
2022/06/06 14:00:18;;;;;;;1.95;1.55;;;22.20;53.30;;;;;;5052584;28;20634;-88
2022/06/06 14:03:13;;;;;;;6.40;1.85;;;22.40;49.30;;;;;;5052478;28;20165;-88
2022/06/06 14:06:17;;;;;;;5.38;1.60;;;22.30;50.50;;;;;;5015726;28;20192;-89
2022/06/06 14:08:50;;;;;;;13.82;2.00;;;22.40;49.50;;;;;;5038940;28;20248;-88